Time;durP1;ratioP1;P1;durP2;ratioP2;P2;SDS_P1;SDS_P2;PMS_P1;PMS_P2;Temp;Humidity;BMP_temperature;BMP_pressure;BME280_temperature;BME280_humidity;BME280_pressure;Samples;Min_cycle;Max_cycle;Signal;HPM_P1;HPM_P2
2023/10/03 00:00:27;;;;;;;;;;;;;;;10.96;81.51;99725.91;5075452;28;20250;-41
2023/10/03 00:03:00;;;;;;;3.97;1.20;;;;;;;10.88;81.39;99723.59;5075121;28;19927;-42
2023/10/03 00:05:29;;;;;;;4.50;1.00;;;;;;;10.84;81.32;99729.78;5056205;28;20055;-41
2023/10/03 00:07:56;;;;;;;2.95;0.95;;;;;;;10.79;81.57;99726.50;5064368;28;20067;-41
2023/10/03 00:10:23;;;;;;;3.85;1.20;;;;;;;10.52;82.31;99686.69;5065283;28;20044;-41
2023/10/03 00:12:51;;;;;;;2.80;1.10;;;;;;;10.45;82.74;99685.22;5081708;28;20047;-41
2023/10/03 00:15:18;;;;;;;1.45;0.90;;;;;;;10.70;82.70;99725.97;5067439;28;20032;-41
2023/10/03 00:17:44;;;;;;;3.03;1.42;;;;;;;10.65;82.94;99720.09;5066314;28;20041;-42
2023/10/03 00:20:16;;;;;;;1.40;1.00;;;;;;;10.62;83.28;99721.88;5079280;28;20044;-41
2023/10/03 00:22:44;;;;;;;3.70;1.33;;;;;;;10.57;83.53;99715.97;5087635;28;20817;-41
2023/10/03 00:25:18;;;;;;;3.13;1.00;;;;;;;10.38;84.11;99694.09;5066571;28;20059;-42
2023/10/03 00:27:49;;;;;;;1.88;1.15;;;;;;;10.54;84.20;99716.09;5050240;28;20047;-42
2023/10/03 00:30:16;;;;;;;2.25;1.05;;;;;;;10.52;84.37;99719.66;5066225;28;20044;-42
2023/10/03 00:32:43;;;;;;;2.25;1.10;;;;;;;10.33;84.67;99688.22;5081260;28;20093;-42
2023/10/03 00:35:10;;;;;;;4.10;1.05;;;;;;;10.48;84.86;99725.84;5068159;28;20056;-42
2023/10/03 00:37:37;;;;;;;4.05;1.08;;;;;;;10.46;85.60;99725.06;5067229;28;20040;-42
2023/10/03 00:42:59;;;;;;;4.35;1.13;;;;;;;10.34;85.96;99715.91;5066068;28;20071;-41
2023/10/03 00:45:29;;;;;;;1.60;1.15;;;;;;;10.38;86.15;99724.44;5084504;28;20048;-42
2023/10/03 00:47:58;;;;;;;3.33;1.20;;;;;;;10.34;86.20;99718.50;5086064;28;20044;-41
2023/10/03 00:50:29;;;;;;;6.72;1.50;;;;;;;10.32;86.02;99716.84;5069071;28;20055;-41
2023/10/03 00:52:58;;;;;;;4.80;1.60;;;;;;;10.30;86.82;99731.66;5067276;28;20078;-41
2023/10/03 00:55:33;;;;;;;2.78;1.20;;;;;;;10.31;86.99;99725.56;5077111;28;20438;-41
2023/10/03 00:58:36;;;;;;;4.38;1.70;;;;;;;10.30;87.00;99731.66;5067732;28;20037;-41
2023/10/03 01:00:56;;;;;;;4.88;1.60;;;;;;;10.06;87.35;99689.94;5072903;28;20055;-42
2023/10/03 01:03:37;;;;;;;6.22;1.55;;;;;;;10.25;87.05;99725.75;5088559;28;20055;-41
2023/10/03 01:06:09;;;;;;;2.92;1.42;;;;;;;10.21;88.26;99725.00;5094039;28;20059;-41
2023/10/03 01:08:39;;;;;;;3.42;1.30;;;;;;;10.18;88.22;99723.34;5111532;28;20078;-42
2023/10/03 01:11:05;;;;;;;;;;;;;;;10.19;88.23;99722.47;5098971;28;20047;-41
2023/10/03 01:13:31;;;;;;;3.30;1.05;;;;;;;10.18;88.22;99723.34;5103455;28;19920;-41
2023/10/03 01:15:57;;;;;;;2.45;1.08;;;;;;;10.23;88.54;99724.94;5069630;28;20047;-42
2023/10/03 01:18:26;;;;;;;3.65;1.50;;;;;;;10.27;88.19;99735.19;5082159;28;20051;-41
2023/10/03 01:20:55;;;;;;;2.08;1.20;;;;;;;9.95;88.84;99671.25;5074256;28;20081;-42
2023/10/03 01:23:23;;;;;;;2.25;1.20;;;;;;;10.41;88.77;99734.75;5072994;28;20555;-42
2023/10/03 01:25:51;;;;;;;3.15;1.17;;;;;;;10.46;88.65;99718.13;5090717;28;20040;-42
2023/10/03 01:28:17;;;;;;;3.10;1.30;;;;;;;10.66;88.30;99730.44;5085662;28;20040;-43
2023/10/03 01:30:43;;;;;;;4.20;1.35;;;;;;;10.78;88.18;99722.19;5085983;28;20493;-42
2023/10/03 01:33:11;;;;;;;2.00;1.02;;;;;;;10.65;87.17;99694.06;5074982;28;20043;-40
2023/10/03 01:35:38;;;;;;;5.32;1.35;;;;;;;10.92;87.37;99725.19;5089266;28;20055;-42
2023/10/03 01:38:07;;;;;;;5.32;1.25;;;;;;;10.99;86.45;99733.63;5090611;28;20056;-41
2023/10/03 01:40:33;;;;;;;1.75;1.40;;;;;;;10.94;85.97;99730.31;5089026;28;20040;-49
2023/10/03 01:42:58;;;;;;;3.03;1.33;;;;;;;10.99;86.23;99729.25;5082402;28;20542;-41
2023/10/03 01:45:26;;;;;;;3.00;1.00;;;;;;;10.97;86.48;99725.03;5072589;28;20070;-42
2023/10/03 01:47:53;;;;;;;2.05;1.00;;;;;;;10.99;85.49;99723.22;5090290;28;20032;-42
2023/10/03 01:50:20;;;;;;;3.53;1.10;;;;;;;11.03;85.33;99730.00;5086066;28;20043;-42
2023/10/03 01:52:47;;;;;;;2.13;0.93;;;;;;;11.14;85.18;99727.03;5088734;28;20039;-41
2023/10/03 01:55:16;;;;;;;3.88;0.93;;;;;;;11.24;84.90;99731.84;5089012;28;20044;-41
2023/10/03 01:57:44;;;;;;;3.17;1.13;;;;;;;11.33;84.45;99734.09;5060401;28;20051;-40
2023/10/03 02:00:21;;;;;;;5.20;1.50;;;;;;;11.28;83.85;99733.44;5081192;28;20098;-42
2023/10/03 02:02:47;;;;;;;2.45;1.42;;;;;;;11.26;83.72;99729.16;5070047;28;20052;-41
2023/10/03 02:05:15;;;;;;;2.97;1.10;;;;;;;11.24;84.00;99729.25;5082398;28;20063;-42
2023/10/03 02:07:42;;;;;;;2.25;1.10;;;;;;;11.25;83.69;99732.69;5068519;28;20648;-42
2023/10/03 02:10:12;;;;;;;3.08;1.25;;;;;;;11.33;83.93;99731.50;5087330;28;20413;-42
2023/10/03 02:12:48;;;;;;;2.58;1.10;;;;;;;11.40;83.26;99734.75;5072126;28;20556;-42
2023/10/03 02:15:23;;;;;;;1.65;1.08;;;;;;;11.44;82.64;99734.56;5049877;28;20048;-41
2023/10/03 02:17:56;;;;;;;5.53;1.30;;;;;;;11.49;82.45;99734.41;5068471;28;20029;-41
2023/10/03 02:20:25;;;;;;;2.55;1.40;;;;;;;11.53;82.46;99741.19;5068265;28;20040;-42
2023/10/03 02:22:55;;;;;;;3.10;1.30;;;;;;;11.55;81.78;99744.59;5069673;28;20040;-43
2023/10/03 02:25:26;;;;;;;2.45;1.20;;;;;;;11.58;81.98;99748.81;5094687;28;20055;-42
2023/10/03 02:27:55;;;;;;;3.45;1.40;;;;;;;11.58;81.60;99747.06;5069958;28;20036;-43
2023/10/03 02:30:30;;;;;;;2.38;1.30;;;;;;;11.54;81.21;99757.66;5067290;28;20040;-42
2023/10/03 02:33:07;;;;;;;2.83;1.23;;;;;;;11.40;81.19;99733.00;5087937;28;20555;-41
2023/10/03 02:35:35;;;;;;;2.35;1.13;;;;;;;11.56;80.71;99759.31;5080057;28;20469;-42
2023/10/03 02:38:04;;;;;;;2.30;1.02;;;;;;;11.47;80.44;99737.03;5084038;27;20039;-42
2023/10/03 02:40:32;;;;;;;4.30;1.33;;;;;;;11.60;80.24;99754.81;5087313;28;20472;-42
2023/10/03 02:43:00;;;;;;;;;;;;;;;11.61;80.49;99744.34;5056080;28;20032;-40
2023/10/03 02:45:28;;;;;;;1.33;0.80;;;;;;;11.61;80.22;99759.13;5097135;28;19916;-41
2023/10/03 02:47:55;;;;;;;1.88;1.10;;;;;;;11.59;80.33;99759.19;5106226;28;20047;-43
2023/10/03 02:50:23;;;;;;;2.67;1.00;;;;;;;11.43;80.21;99730.25;5097208;28;20163;-41
2023/10/03 02:52:57;;;;;;;3.47;1.23;;;;;;;11.36;80.21;99731.38;5082866;28;20063;-42
2023/10/03 02:55:23;;;;;;;2.17;1.10;;;;;;;11.52;80.17;99760.31;5087563;28;20058;-42
2023/10/03 02:57:49;;;;;;;2.10;0.90;;;;;;;11.37;79.78;99727.03;5076134;28;20036;-41
2023/10/03 03:00:16;;;;;;;3.08;1.20;;;;;;;11.52;79.71;99752.50;5068184;28;20507;-43
2023/10/03 03:02:49;;;;;;;2.30;0.80;;;;;;;11.63;79.59;99752.94;5051376;28;20072;-43
2023/10/03 03:05:22;;;;;;;3.40;0.98;;;;;;;11.42;79.35;99718.13;5083698;28;20482;-42
2023/10/03 03:07:49;;;;;;;2.17;0.75;;;;;;;11.44;79.62;99712.88;5050555;28;20098;-41
2023/10/03 03:10:17;;;;;;;4.53;0.95;;;;;;;11.67;79.06;99749.31;5087759;28;20560;-44
2023/10/03 03:12:46;;;;;;;3.67;1.48;;;;;;;11.71;79.22;99748.31;5071019;28;20511;-43
2023/10/03 03:15:21;;;;;;;2.22;1.00;;;;;;;11.70;78.89;99746.59;5087671;28;20085;-43
2023/10/03 03:17:51;;;;;;;2.15;0.70;;;;;;;11.72;78.58;99743.97;5083987;28;20039;-43
2023/10/03 03:20:21;;;;;;;2.42;0.60;;;;;;;11.70;78.45;99736.19;5067842;28;20089;-43
2023/10/03 03:22:48;;;;;;;3.50;0.90;;;;;;;11.65;78.31;99738.13;5069602;28;20040;-42
2023/10/03 03:25:24;;;;;;;2.03;0.75;;;;;;;11.64;77.99;99740.78;5087015;28;20093;-43
2023/10/03 03:27:54;;;;;;;2.65;0.73;;;;;;;11.55;78.01;99739.38;5083360;28;20174;-43
2023/10/03 03:32:54;;;;;;;2.70;0.80;;;;;;;11.24;78.20;99734.44;5086014;28;20085;-42
2023/10/03 03:35:24;;;;;;;1.58;0.80;;;;;;;11.08;79.06;99740.25;5086231;28;20044;-42
2023/10/03 03:37:55;;;;;;;2.22;0.90;;;;;;;10.93;79.02;99746.84;5084984;28;20039;-42
2023/10/03 03:40:29;;;;;;;2.80;0.85;;;;;;;10.76;79.70;99734.41;5067814;28;20140;-44
2023/10/03 03:43:00;;;;;;;3.28;1.40;;;;;;;10.66;80.03;99746.03;5088521;28;20177;-42
2023/10/03 03:45:26;;;;;;;1.58;0.75;;;;;;;10.57;80.68;99746.34;5070522;28;20491;-42
2023/10/03 03:47:54;;;;;;;3.13;0.90;;;;;;;10.48;81.04;99746.63;5070100;28;20040;-42
2023/10/03 03:50:21;;;;;;;2.40;1.00;;;;;;;10.38;81.47;99753.88;5087000;28;20040;-42
2023/10/03 03:52:51;;;;;;;5.00;2.78;;;;;;;10.16;81.61;99717.34;5077983;28;20059;-43
2023/10/03 03:55:18;;;;;;;2.00;1.05;;;;;;;10.26;82.55;99746.47;5088193;28;20048;-42
2023/10/03 03:57:45;;;;;;;2.22;0.80;;;;;;;10.16;82.65;99726.88;5088260;28;20043;-42
2023/10/03 04:00:20;;;;;;;4.00;1.10;;;;;;;10.25;82.77;99743.94;5070342;28;20036;-43
2023/10/03 04:02:47;;;;;;;8.00;1.75;;;;;;;10.07;83.33;99709.81;5080573;28;20050;-42
2023/10/03 04:05:13;;;;;;;1.30;0.82;;;;;;;10.23;83.39;99740.53;5068282;28;20060;-42
2023/10/03 04:07:39;;;;;;;2.17;1.00;;;;;;;10.25;83.54;99738.75;5080868;28;20494;-43
2023/10/03 04:10:13;;;;;;;4.70;1.05;;;;;;;10.24;83.60;99745.69;5086948;28;20036;-43
2023/10/03 04:12:43;;;;;;;3.00;0.98;;;;;;;10.26;83.67;99753.44;5088119;28;20067;-50
2023/10/03 04:15:19;;;;;;;5.00;2.00;;;;;;;10.23;83.78;99744.00;5038578;28;20516;-41
2023/10/03 04:17:49;;;;;;;4.90;1.90;;;;;;;10.27;84.07;99752.53;5050279;28;20044;-44
2023/10/03 04:22:48;;;;;;;4.47;2.20;;;;;;;10.41;84.37;99756.41;5076949;28;20055;-41
2023/10/03 04:25:15;;;;;;;7.75;2.40;;;;;;;10.18;84.16;99699.97;5076689;28;20383;-41
2023/10/03 04:27:41;;;;;;;11.23;2.50;;;;;;;10.64;84.37;99760.81;5087725;28;20040;-42
2023/10/03 04:30:13;;;;;;;5.95;2.30;;;;;;;10.60;83.54;99748.84;5088041;28;20043;-43
2023/10/03 04:32:42;;;;;;;5.55;2.30;;;;;;;10.53;84.41;99762.94;5080781;28;20038;-43
2023/10/03 04:35:13;;;;;;;11.25;2.00;;;;;;;10.42;84.82;99758.06;5076681;28;20044;-43
2023/10/03 04:37:43;;;;;;;5.47;2.08;;;;;;;10.31;85.51;99767.97;5089868;28;20085;-42
2023/10/03 04:40:10;;;;;;;6.60;2.42;;;;;;;10.17;86.25;99764.97;5097895;28;20054;-43
2023/10/03 04:42:38;;;;;;;6.30;2.30;;;;;;;10.16;86.93;99773.66;5108050;28;20047;-42
2023/10/03 04:45:08;;;;;;;5.97;2.10;;;;;;;10.06;87.05;99739.28;5081811;28;20399;-43
2023/10/03 04:47:34;;;;;;;5.90;2.38;;;;;;;10.32;87.25;99764.47;5091846;28;20035;-43
2023/10/03 04:50:00;;;;;;;9.40;3.10;;;;;;;10.09;86.11;99727.97;5086608;28;20043;-43
2023/10/03 04:52:27;;;;;;;4.15;2.20;;;;;;;10.40;86.70;99772.03;5086625;28;20143;-43
2023/10/03 04:54:52;;;;;;;5.97;2.70;;;;;;;10.43;86.29;99775.38;5070147;28;20044;-42
2023/10/03 04:57:18;;;;;;;4.63;1.95;;;;;;;10.52;85.91;99771.66;5071349;28;20580;-43
2023/10/03 04:59:44;;;;;;;4.45;1.85;;;;;;;10.57;85.35;99764.56;5085756;28;20043;-43
2023/10/03 05:02:10;;;;;;;4.93;2.10;;;;;;;10.64;84.63;99768.63;5089080;28;20051;-43
2023/10/03 05:04:37;;;;;;;6.95;2.40;;;;;;;10.75;84.33;99770.88;5069598;28;20090;-42
2023/10/03 05:07:03;;;;;;;5.22;1.98;;;;;;;10.80;83.50;99776.75;5070712;28;20098;-43
2023/10/03 05:09:32;;;;;;;4.00;2.10;;;;;;;10.86;83.10;99764.41;5088606;28;20048;-41
2023/10/03 05:11:57;;;;;;;3.95;1.85;;;;;;;10.93;82.26;99771.13;5090666;28;20055;-42
2023/10/03 05:14:23;;;;;;;5.72;1.92;;;;;;;11.03;81.84;99763.84;5089197;28;20090;-42
2023/10/03 05:16:50;;;;;;;22.08;3.47;;;;;;;11.03;81.57;99749.06;5084429;28;20081;-43
2023/10/03 05:19:17;;;;;;;6.57;1.80;;;;;;;11.10;80.14;99759.25;5090769;28;20100;-42
2023/10/03 05:21:45;;;;;;;4.35;1.95;;;;;;;11.13;80.33;99753.94;5087210;28;20040;-43
2023/10/03 05:24:11;;;;;;;9.45;2.03;;;;;;;11.15;79.41;99760.78;5052630;28;20066;-43
2023/10/03 05:26:38;;;;;;;19.20;3.47;;;;;;;11.15;79.39;99752.16;5070541;28;20131;-42
2023/10/03 05:29:04;;;;;;;7.20;2.03;;;;;;;11.08;78.93;99755.88;5081382;28;20101;-43
2023/10/03 05:31:30;;;;;;;3.70;1.75;;;;;;;11.13;79.19;99753.94;5050449;28;20044;-41
2023/10/03 05:33:56;;;;;;;5.18;2.10;;;;;;;11.61;77.99;99759.13;5087272;28;20499;-42
2023/10/03 05:36:22;;;;;;;6.50;2.10;;;;;;;12.33;75.76;99758.06;5070888;28;20036;-43
2023/10/03 05:38:49;;;;;;;5.90;2.00;;;;;;;12.90;73.10;99751.34;5076869;28;20124;-43
2023/10/03 05:41:23;;;;;;;8.35;2.10;;;;;;;13.30;70.99;99719.13;5069197;28;20503;-42
2023/10/03 05:43:49;;;;;;;8.50;1.73;;;;;;;14.23;68.66;99753.09;5068915;28;20052;-44
2023/10/03 05:46:15;;;;;;;7.65;1.65;;;;;;;14.61;66.33;99751.25;5070150;28;20040;-44
2023/10/03 05:48:45;;;;;;;9.63;1.80;;;;;;;14.99;64.49;99758.94;5070430;28;20040;-45
2023/10/03 05:51:12;;;;;;;5.05;1.50;;;;;;;15.21;61.85;99765.63;5071887;28;20135;-44
2023/10/03 05:53:40;;;;;;;3.10;1.80;;;;;;;15.36;60.95;99732.53;5085899;28;20569;-47
2023/10/03 05:56:06;;;;;;;5.75;2.08;;;;;;;16.09;59.67;99762.63;5068958;28;20573;-45
2023/10/03 05:58:32;;;;;;;8.25;2.30;;;;;;;16.65;57.37;99769.09;5068380;28;20557;-43
2023/10/03 06:00:59;;;;;;;8.05;2.40;;;;;;;16.83;56.43;99768.88;5070265;28;20048;-46
2023/10/03 06:03:25;;;;;;;5.97;1.83;;;;;;;17.53;54.70;99779.59;5051630;28;20048;-43
2023/10/03 06:05:51;;;;;;;8.82;2.05;;;;;;;17.54;52.51;99776.84;5085550;28;20083;-42
2023/10/03 06:08:18;;;;;;;5.72;1.88;;;;;;;17.80;52.24;99777.91;5076446;28;20094;-43
2023/10/03 06:10:44;;;;;;;8.55;1.92;;;;;;;18.09;50.78;99770.81;5075625;28;20052;-43
2023/10/03 06:13:10;;;;;;;3.88;1.80;;;;;;;18.74;49.27;99777.06;5083275;28;20036;-43
2023/10/03 06:15:41;;;;;;;3.85;1.60;;;;;;;18.50;48.57;99752.34;5072218;28;20039;-44
2023/10/03 06:18:08;;;;;;;4.03;2.00;;;;;;;19.14;47.96;99777.06;5072742;28;20583;-42
2023/10/03 06:20:34;;;;;;;10.50;2.50;;;;;;;19.74;46.71;99778.09;5073430;28;20044;-45
2023/10/03 06:23:04;;;;;;;7.05;2.00;;;;;;;20.29;45.73;99769.72;5071104;28;20075;-45
2023/10/03 06:25:31;;;;;;;6.60;2.60;;;;;;;21.21;44.42;99761.06;5088549;28;20522;-44
2023/10/03 06:27:59;;;;;;;3.88;2.08;;;;;;;21.54;42.13;99774.34;5062628;28;20041;-44
2023/10/03 06:30:26;;;;;;;13.82;2.47;;;;;;;21.41;42.17;99765.66;5082683;28;20069;-43
2023/10/03 06:32:52;;;;;;;5.75;2.42;;;;;;;22.10;41.14;99765.53;5059634;28;20036;-45
2023/10/03 06:35:18;;;;;;;6.40;2.20;;;;;;;22.52;39.79;99774.44;5067349;28;20113;-46
2023/10/03 06:37:44;;;;;;;4.75;1.60;;;;;;;22.00;39.18;99775.19;5068720;28;20121;-43
2023/10/03 06:40:13;;;;;;;8.32;2.30;;;;;;;21.55;39.54;99768.09;5070327;28;20044;-45
2023/10/03 06:42:40;;;;;;;6.45;2.13;;;;;;;21.69;39.11;99760.88;5088037;28;20419;-45
2023/10/03 06:45:13;;;;;;;6.32;2.33;;;;;;;21.98;38.41;99765.56;5089124;28;20040;-43
2023/10/03 06:47:39;;;;;;;4.88;1.90;;;;;;;22.03;38.07;99753.78;5104228;28;20048;-45
2023/10/03 06:50:06;;;;;;;3.70;1.90;;;;;;;21.75;38.45;99777.13;5074475;28;20046;-44
2023/10/03 06:52:34;;;;;;;5.22;2.05;;;;;;;21.93;37.73;99770.34;5088995;28;20040;-50
2023/10/03 06:55:03;;;;;;;3.78;1.95;;;;;;;21.76;37.74;99768.22;5068468;28;20052;-49
2023/10/03 06:57:29;;;;;;;4.43;2.10;;;;;;;22.67;37.25;99747.53;5072379;28;20123;-44
2023/10/03 06:59:56;;;;;;;3.40;1.90;;;;;;;22.62;36.66;99767.41;5067624;28;20040;-45
2023/10/03 07:02:22;;;;;;;4.97;1.70;;;;;;;22.04;37.11;99727.16;5075457;28;20489;-50
2023/10/03 07:04:48;;;;;;;5.80;2.00;;;;;;;21.99;37.59;99771.69;5074550;28;20131;-51
2023/10/03 07:07:14;;;;;;;5.32;2.05;;;;;;;22.48;37.10;99771.22;5067083;28;20071;-45
2023/10/03 07:09:40;;;;;;;4.25;1.70;;;;;;;22.19;36.48;99775.41;5068805;28;20459;-43
2023/10/03 07:12:09;;;;;;;7.57;1.70;;;;;;;21.70;37.06;99774.00;5067335;28;20032;-43
2023/10/03 07:14:35;;;;;;;3.78;1.40;;;;;;;22.32;36.38;99762.84;5071770;28;20063;-41
2023/10/03 07:17:03;;;;;;;3.97;1.48;;;;;;;21.74;36.26;99762.19;5088704;28;20183;-42
2023/10/03 07:19:32;;;;;;;6.82;2.28;;;;;;;21.21;37.10;99757.59;5078235;28;20531;-44
2023/10/03 07:21:58;;;;;;;4.25;1.70;;;;;;;21.32;37.33;99769.03;5068190;28;20089;-45
2023/10/03 07:24:25;;;;;;;4.63;1.60;;;;;;;21.51;37.13;99756.06;5066826;28;20048;-43
2023/10/03 07:26:51;;;;;;;4.40;1.40;;;;;;;22.29;36.57;99781.66;5077148;28;20503;-45
2023/10/03 07:29:17;;;;;;;4.45;1.50;;;;;;;21.94;36.30;99748.25;5062452;28;20040;-43
2023/10/03 07:31:43;;;;;;;4.05;1.30;;;;;;;22.61;35.51;99739.25;5073049;28;20044;-43
2023/10/03 07:34:09;;;;;;;4.50;1.42;;;;;;;22.56;35.29;99781.19;5088257;28;20461;-43
2023/10/03 07:36:36;;;;;;;3.67;1.60;;;;;;;22.30;35.25;99767.41;5088046;28;20051;-45
2023/10/03 07:39:03;;;;;;;3.90;1.63;;;;;;;21.31;36.37;99719.72;5081437;28;20036;-45
2023/10/03 07:41:29;;;;;;;3.63;1.73;;;;;;;21.47;36.48;99756.41;5066509;28;20044;-42
2023/10/03 07:43:55;;;;;;;5.03;1.90;;;;;;;21.56;36.52;99767.13;5053790;28;20044;-48
2023/10/03 07:46:22;;;;;;;4.60;1.60;;;;;;;21.02;37.28;99742.28;5063571;28;20054;-43
2023/10/03 07:48:52;;;;;;;4.85;1.67;;;;;;;20.54;38.00;99752.94;5076644;28;20048;-41
2023/10/03 07:51:19;;;;;;;6.35;1.88;;;;;;;20.34;38.53;99752.72;5086566;28;20078;-41
2023/10/03 07:53:46;;;;;;;3.67;1.60;;;;;;;20.51;38.29;99752.34;5085327;28;20040;-44
2023/10/03 07:56:29;;;;;;;5.20;1.98;;;;;;;20.49;38.82;99747.16;5068020;28;20046;-43
2023/10/03 07:58:57;;;;;;;6.75;1.90;;;;;;;21.28;37.88;99748.22;5087153;28;20032;-47
2023/10/03 08:01:26;;;;;;;3.50;1.60;;;;;;;21.91;37.21;99750.25;5081188;28;20040;-45
2023/10/03 08:03:55;;;;;;;4.85;1.80;;;;;;;21.53;37.28;99738.25;5092783;28;20047;-44
2023/10/03 08:06:26;;;;;;;3.85;1.40;;;;;;;21.82;37.46;99751.84;5106692;28;20053;-43
2023/10/03 08:08:53;;;;;;;6.40;1.75;;;;;;;22.77;36.43;99748.47;5082267;28;20039;-41
2023/10/03 08:11:28;;;;;;;7.43;1.80;;;;;;;24.24;34.50;99736.59;5066866;28;20127;-43
2023/10/03 08:14:17;;;;;;;5.97;2.20;;;;;;;24.41;33.75;99733.25;5083493;28;20040;-42
2023/10/03 08:16:45;;;;;;;4.45;2.00;;;;;;;24.06;33.96;99733.75;5079603;28;20043;-45
2023/10/03 08:19:26;;;;;;;5.45;1.75;;;;;;;24.45;33.20;99721.34;5103526;28;20414;-45
2023/10/03 08:21:54;;;;;;;4.82;1.65;;;;;;;24.30;33.08;99730.72;5059194;28;20079;-44
2023/10/03 08:24:25;;;;;;;6.25;3.10;;;;;;;24.39;33.51;99706.81;5081762;28;20047;-43
2023/10/03 08:26:58;;;;;;;3.83;1.55;;;;;;;24.46;32.49;99723.88;5081615;28;20180;-45
2023/10/03 08:29:25;;;;;;;8.05;2.08;;;;;;;24.01;33.17;99728.00;5078717;28;20040;-44
2023/10/03 08:31:58;;;;;;;5.15;1.63;;;;;;;24.42;32.11;99716.34;5079277;28;20161;-45
2023/10/03 08:34:25;;;;;;;4.15;1.80;;;;;;;24.58;32.11;99703.31;5072381;28;20039;-46
2023/10/03 08:36:54;;;;;;;3.05;1.42;;;;;;;24.08;32.47;99698.09;5077585;28;20036;-45
2023/10/03 08:39:23;;;;;;;3.45;1.90;;;;;;;24.20;32.25;99682.88;5091993;28;20043;-43
2023/10/03 08:42:17;;;;;;;2.83;1.50;;;;;;;24.50;31.93;99713.78;5062558;28;20063;-43
2023/10/03 08:44:53;;;;;;;2.80;1.30;;;;;;;24.29;31.40;99718.41;5080094;28;20771;-45
2023/10/03 08:47:28;;;;;;;2.10;1.33;;;;;;;24.07;31.85;99706.22;5087895;28;20042;-44
2023/10/03 08:50:10;;;;;;;6.13;1.60;;;;;;;24.40;31.98;99695.19;5083209;28;20087;-44
2023/10/03 08:52:48;;;;;;;3.95;1.80;;;;;;;26.26;29.79;99715.63;5075256;28;20066;-51
2023/10/03 08:55:15;;;;;;;5.55;1.42;;;;;;;26.39;29.25;99715.22;5066237;28;20606;-45
2023/10/03 08:57:41;;;;;;;3.13;1.55;;;;;;;25.33;30.30;99703.28;5073736;28;20064;-50
2023/10/03 09:00:09;;;;;;;3.65;2.17;;;;;;;24.08;31.60;99657.38;5046436;28;20151;-42
2023/10/03 09:02:45;;;;;;;4.57;1.73;;;;;;;23.29;33.18;99706.91;5049646;28;20131;-43
2023/10/03 09:05:19;;;;;;;5.80;2.28;;;;;;;22.34;34.74;99706.13;5060794;28;20822;-43
2023/10/03 09:07:49;;;;;;;5.70;1.83;;;;;;;24.03;32.58;99691.50;5079394;28;20068;-44
2023/10/03 09:10:23;;;;;;;6.45;1.70;;;;;;;24.83;31.39;99691.25;5090268;28;20070;-43
2023/10/03 09:12:56;;;;;;;3.67;1.80;;;;;;;25.62;30.50;99691.72;5092316;28;20598;-45
2023/10/03 09:15:22;;;;;;;5.28;1.60;;;;;;;26.39;29.76;99696.56;5082864;28;20048;-44
2023/10/03 09:17:52;;;;;;;3.92;2.05;;;;;;;26.76;29.19;99667.00;5096764;28;20031;-42
2023/10/03 09:20:22;;;;;;;4.25;1.83;;;;;;;27.75;28.51;99694.97;5059862;28;20145;-44
2023/10/03 09:22:48;;;;;;;5.50;1.70;;;;;;;27.87;27.82;99688.31;5082454;28;20070;-44
2023/10/03 09:25:16;;;;;;;6.35;2.10;;;;;;;27.92;28.04;99653.94;5094319;28;20138;-46
2023/10/03 09:27:43;;;;;;;4.20;1.55;;;;;;;27.83;27.97;99670.94;5055990;28;20036;-48
2023/10/03 09:30:12;;;;;;;2.63;1.65;;;;;;;27.08;28.57;99648.56;5064489;28;20149;-43
2023/10/03 09:32:39;;;;;;;3.45;2.00;;;;;;;27.06;28.76;99660.41;5073990;28;20093;-47
2023/10/03 09:35:11;;;;;;;3.60;2.17;;;;;;;27.49;28.59;99657.59;5078581;28;20044;-48
2023/10/03 09:37:43;;;;;;;6.05;1.98;;;;;;;27.22;28.35;99639.13;5078574;28;20036;-45
2023/10/03 09:40:16;;;;;;;4.75;1.80;;;;;;;26.76;28.95;99661.69;5064552;28;20041;-47
2023/10/03 09:42:48;;;;;;;3.50;1.95;;;;;;;26.46;29.13;99657.63;5088473;28;20598;-43
2023/10/03 09:45:18;;;;;;;5.35;2.05;;;;;;;24.62;31.14;99626.75;5065219;28;20051;-45
2023/10/03 09:47:45;;;;;;;3.22;1.70;;;;;;;24.50;31.67;99644.69;5064408;28;20045;-42
2023/10/03 09:50:12;;;;;;;4.47;2.00;;;;;;;25.27;30.50;99621.41;5071007;28;20146;-43
2023/10/03 09:52:44;;;;;;;5.63;1.70;;;;;;;25.26;30.58;99633.03;5083505;28;20036;-49
2023/10/03 09:55:26;;;;;;;4.10;2.03;;;;;;;25.87;30.33;99612.91;5078029;28;20040;-42
2023/10/03 09:57:54;;;;;;;4.20;2.33;;;;;;;27.17;28.60;99599.56;5084664;28;20113;-45
2023/10/03 10:00:38;;;;;;;3.45;1.95;;;;;;;27.55;27.73;99622.28;5078673;28;20054;-50
2023/10/03 10:03:10;;;;;;;7.13;2.30;;;;;;;28.02;27.29;99619.03;5081817;28;20039;-43
2023/10/03 10:05:39;;;;;;;4.60;2.50;;;;;;;28.31;26.97;99621.25;5084950;28;20056;-46
2023/10/03 10:08:27;;;;;;;3.10;2.00;;;;;;;26.65;28.68;99616.59;5097052;28;20060;-42
2023/10/03 10:11:22;;;;;;;2.97;1.98;;;;;;;27.47;27.77;99608.88;5061821;28;20051;-43
2023/10/03 10:14:11;;;;;;;4.63;2.15;;;;;;;28.02;27.18;99617.19;5069274;28;20039;-43
2023/10/03 10:17:04;;;;;;;6.40;2.55;;;;;;;28.98;26.37;99615.50;5093540;28;20132;-44
2023/10/03 10:20:13;;;;;;;4.10;2.17;;;;;;;29.55;25.66;99609.91;5081418;28;20064;-43
2023/10/03 10:25:43;;;;;;;5.90;2.25;;;;;;;28.19;26.21;99612.72;5081984;28;20036;-43
2023/10/03 10:28:26;;;;;;;4.43;2.20;;;;;;;25.77;29.00;99610.31;5062357;28;20044;-45
2023/10/03 10:31:10;;;;;;;5.88;2.83;;;;;;;26.17;28.95;99601.84;5067856;28;20047;-47
2023/10/03 10:33:37;;;;;;;6.13;2.30;;;;;;;26.05;29.51;99597.78;5078488;28;20139;-43
2023/10/03 10:36:04;;;;;;;5.75;2.53;;;;;;;26.24;29.54;99596.78;5091210;28;20487;-45
2023/10/03 10:38:32;;;;;;;8.65;2.40;;;;;;;26.08;29.61;99584.13;5100286;28;20410;-47
2023/10/03 10:41:29;;;;;;;3.35;2.13;;;;;;;24.51;31.20;99597.69;5083210;28;20510;-48
2023/10/03 10:44:14;;;;;;;4.75;2.58;;;;;;;24.44;32.25;99589.47;5086006;27;20816;-42
2023/10/03 10:46:52;;;;;;;6.78;2.47;;;;;;;25.62;30.52;99596.69;5062265;28;20163;-43
2023/10/03 10:49:57;;;;;;;6.57;2.65;;;;;;;23.95;32.17;99585.97;5079029;28;20115;-44
2023/10/03 10:52:23;;;;;;;6.07;2.50;;;;;;;23.15;33.33;99545.44;5063612;28;20504;-44
2023/10/03 10:54:49;;;;;;;4.47;2.45;;;;;;;23.71;32.80;99579.41;5066655;28;20047;-42
2023/10/03 10:57:15;;;;;;;3.85;2.00;;;;;;;22.71;34.11;99581.16;5082068;28;20040;-44
2023/10/03 10:59:43;;;;;;;6.22;2.25;;;;;;;23.16;34.03;99547.97;5077699;28;20386;-45
2023/10/03 11:02:15;;;;;;;6.00;2.22;;;;;;;25.43;31.27;99586.16;5082583;28;20101;-51
2023/10/03 11:04:41;;;;;;;5.85;2.15;;;;;;;26.67;29.27;99566.59;5083224;28;20502;-46
2023/10/03 11:07:07;;;;;;;6.63;2.10;;;;;;;26.08;29.73;99566.31;5065932;28;20036;-43
2023/10/03 11:09:39;;;;;;;4.05;2.08;;;;;;;24.85;30.99;99573.09;5071843;28;20040;-52
2023/10/03 11:12:06;;;;;;;4.93;2.25;;;;;;;22.37;33.83;99525.72;5073973;28;20044;-44
2023/10/03 11:14:33;;;;;;;3.95;1.80;;;;;;;21.85;35.19;99565.47;5075135;28;20071;-49
2023/10/03 11:17:01;;;;;;;7.10;2.20;;;;;;;22.74;34.48;99570.28;5045092;28;20028;-41
2023/10/03 11:19:31;;;;;;;7.43;2.40;;;;;;;23.16;33.64;99573.66;5061480;28;20052;-42
2023/10/03 11:21:57;;;;;;;7.28;2.08;;;;;;;24.07;32.79;99568.06;5073715;28;20054;-46
2023/10/03 11:24:23;;;;;;;4.20;2.33;;;;;;;23.72;32.60;99562.47;5047557;28;20044;-42
2023/10/03 11:26:53;;;;;;;4.20;1.58;;;;;;;22.10;34.42;99578.38;5075998;28;20036;-42
2023/10/03 11:29:43;;;;;;;5.18;2.28;;;;;;;21.24;36.08;99575.75;5069527;28;20512;-43
2023/10/03 11:32:32;;;;;;;7.40;2.38;;;;;;;20.72;37.04;99584.28;5062502;28;20041;-44
2023/10/03 11:35:13;;;;;;;3.70;1.45;;;;;;;19.98;38.17;99579.38;5062778;28;20079;-45
2023/10/03 11:37:43;;;;;;;5.80;2.30;;;;;;;19.45;39.06;99577.09;5064202;28;20036;-43
2023/10/03 11:40:11;;;;;;;4.40;1.80;;;;;;;19.18;39.55;99546.56;5088510;28;20036;-44
2023/10/03 11:42:52;;;;;;;5.30;2.47;;;;;;;19.23;40.30;99574.28;5078232;28;20042;-42
2023/10/03 11:45:20;;;;;;;5.78;2.22;;;;;;;19.16;40.40;99569.53;5102368;28;20430;-44
2023/10/03 11:48:18;;;;;;;8.33;2.30;;;;;;;18.90;41.08;99574.88;5059719;28;20960;-44
2023/10/03 11:50:45;;;;;;;8.93;2.22;;;;;;;18.88;41.27;99576.78;5069512;28;20113;-43
2023/10/03 11:53:12;;;;;;;4.68;1.90;;;;;;;18.74;41.49;99571.63;5076179;28;20517;-47
2023/10/03 11:55:40;;;;;;;4.93;2.15;;;;;;;18.76;41.47;99568.91;5077029;28;20404;-45
2023/10/03 11:58:07;;;;;;;5.77;2.53;;;;;;;18.78;41.45;99553.84;5083869;28;20147;-42